Time;durP1;ratioP1;P1;durP2;ratioP2;P2;SDS_P1;SDS_P2;PMS_P1;PMS_P2;Temp;Humidity;BMP_temperature;BMP_pressure;BME280_temperature;BME280_humidity;BME280_pressure;Samples;Min_cycle;Max_cycle;Signal;HPM_P1;HPM_P2
2022/10/11 00:00:44;;;;;;;9.68;4.38;;;20.30;58.00;;;;;;5086047;28;45373;-73
2022/10/11 00:03:11;;;;;;;9.43;4.80;;;20.30;58.10;;;;;;5087315;27;45211;-74
2022/10/11 00:05:38;;;;;;;7.97;4.53;;;20.30;58.10;;;;;;5090506;28;45316;-73
2022/10/11 00:08:05;;;;;;;8.05;4.70;;;20.30;58.10;;;;;;5089459;28;45407;-73
2022/10/11 00:10:32;;;;;;;11.80;4.78;;;20.30;58.10;;;;;;5089505;28;45340;-73
2022/10/11 00:12:59;;;;;;;11.23;4.30;;;20.30;58.10;;;;;;5089905;28;45242;-73
2022/10/11 00:15:27;;;;;;;8.07;5.05;;;20.30;58.10;;;;;;5089672;28;45476;-73
2022/10/11 00:17:54;;;;;;;6.90;4.72;;;20.30;58.10;;;;;;5088921;28;46942;-72
2022/10/11 00:20:21;;;;;;;7.50;4.80;;;20.20;58.10;;;;;;5088598;28;45391;-73
2022/10/11 00:22:48;;;;;;;8.48;5.13;;;20.30;58.10;;;;;;5089568;28;45308;-73
2022/10/11 00:25:16;;;;;;;10.77;5.10;;;20.30;58.10;;;;;;5089859;28;45198;-73
2022/10/11 00:27:43;;;;;;;10.95;5.00;;;20.30;58.10;;;;;;5089437;28;46300;-73
2022/10/11 00:30:11;;;;;;;11.30;4.75;;;20.20;58.10;;;;;;5089508;28;45127;-73
2022/10/11 00:32:39;;;;;;;8.50;5.22;;;20.20;58.10;;;;;;5089178;28;45308;-73
2022/10/11 00:35:06;;;;;;;14.55;5.45;;;20.20;58.10;;;;;;5089519;28;45192;-73
2022/10/11 00:37:33;;;;;;;8.52;5.18;;;20.20;58.20;;;;;;5088760;28;46756;-73
2022/10/11 00:40:00;;;;;;;11.02;5.78;;;20.20;58.20;;;;;;5089180;28;45258;-74
2022/10/11 00:42:27;;;;;;;11.85;5.45;;;20.20;58.20;;;;;;5088679;28;45566;-73
2022/10/11 00:45:32;;;;;;;9.45;5.70;;;20.20;58.20;;;;;;5089329;28;45272;-73
2022/10/11 00:48:02;;;;;;;12.82;5.38;;;20.10;58.20;;;;;;5047467;28;46361;-73
2022/10/11 00:50:29;;;;;;;10.18;5.50;;;20.10;58.20;;;;;;5089064;28;45265;-73
2022/10/11 00:52:57;;;;;;;11.20;5.47;;;20.10;58.80;;;;;;5089028;28;45138;-73
2022/10/11 00:55:24;;;;;;;9.30;5.20;;;20.10;58.30;;;;;;5089193;28;45222;-73
2022/10/11 00:57:51;;;;;;;8.40;5.07;;;20.10;58.30;;;;;;5088545;28;45291;-73
2022/10/11 01:00:18;;;;;;;8.55;5.32;;;20.10;58.30;;;;;;5088791;28;45228;-73
2022/10/11 01:02:45;;;;;;;11.10;5.43;;;20.10;58.30;;;;;;5088649;28;45249;-73
2022/10/11 01:05:14;;;;;;;13.02;5.65;;;20.10;58.30;;;;;;5088938;28;45308;-74
2022/10/11 01:07:41;;;;;;;10.52;5.63;;;20.10;58.30;;;;;;5088396;28;46669;-73
2022/10/11 01:10:08;;;;;;;10.50;5.25;;;20.10;58.30;;;;;;5088756;28;45732;-73
2022/10/11 01:12:35;;;;;;;10.20;5.28;;;20.10;58.30;;;;;;5088605;28;45325;-74
2022/10/11 01:15:10;;;;;;;12.70;5.80;;;20.00;58.40;;;;;;5088433;27;45372;-73
2022/10/11 01:17:42;;;;;;;9.75;5.40;;;20.00;58.30;;;;;;5088093;28;46398;-73
2022/10/11 01:20:29;;;;;;;9.75;5.47;;;20.00;58.40;;;;;;5087648;28;45193;-73
2022/10/11 01:23:27;;;;;;;9.13;5.28;;;20.00;58.30;;;;;;5088422;28;45457;-73
2022/10/11 01:26:04;;;;;;;9.30;4.57;;;20.00;58.30;;;;;;5088573;28;45325;-73
2022/10/11 01:28:40;;;;;;;10.43;5.50;;;20.00;58.30;;;;;;5088202;28;46538;-73
2022/10/11 01:31:11;;;;;;;9.77;5.53;;;20.00;58.30;;;;;;5088180;28;45237;-74
2022/10/11 01:33:39;;;;;;;9.60;5.53;;;20.00;58.40;;;;;;5088195;28;45524;-73
2022/10/11 01:36:10;;;;;;;7.50;5.03;;;20.00;58.40;;;;;;5088318;28;45389;-73
2022/10/11 01:38:39;;;;;;;9.48;5.13;;;20.00;58.40;;;;;;5088016;28;45360;-73
2022/10/11 01:41:08;;;;;;;9.82;5.20;;;19.90;58.30;;;;;;5088018;28;44724;-73
2022/10/11 01:43:35;;;;;;;10.30;5.10;;;19.90;58.30;;;;;;5087764;28;45184;-73
2022/10/11 01:46:02;;;;;;;11.15;5.45;;;19.90;58.40;;;;;;5087512;28;45291;-74
2022/10/11 01:48:30;;;;;;;9.50;4.78;;;19.90;58.30;;;;;;5087881;28;46405;-73
2022/10/11 01:50:57;;;;;;;9.93;4.63;;;19.90;58.30;;;;;;5087871;28;45193;-74
2022/10/11 01:54:00;;;;;;;10.00;5.32;;;19.90;58.40;;;;;;5088005;28;45204;-73
2022/10/11 01:56:34;;;;;;;8.30;4.88;;;19.90;58.40;;;;;;5073122;28;45440;-74
2022/10/11 01:59:11;;;;;;;9.00;5.18;;;19.90;58.40;;;;;;5086987;28;46660;-73
2022/10/11 02:01:44;;;;;;;10.27;5.15;;;19.90;58.40;;;;;;5086839;28;45213;-73
2022/10/11 02:04:15;;;;;;;10.18;4.70;;;19.90;58.40;;;;;;5086999;28;45182;-73
2022/10/11 02:06:46;;;;;;;9.65;5.05;;;19.90;58.40;;;;;;5087891;28;45376;-73
2022/10/11 02:09:14;;;;;;;10.02;5.10;;;19.90;58.40;;;;;;5087456;28;46391;-73
2022/10/11 02:11:41;;;;;;;8.82;5.10;;;19.80;58.40;;;;;;5087683;28;45403;-73
2022/10/11 02:14:09;;;;;;;10.15;5.10;;;19.80;58.40;;;;;;5087622;28;45315;-73
2022/10/11 02:16:39;;;;;;;10.13;5.30;;;19.80;58.40;;;;;;5087741;28;45506;-73
2022/10/11 02:19:06;;;;;;;9.27;4.85;;;19.80;58.40;;;;;;5087399;28;46395;-73
2022/10/11 02:21:36;;;;;;;10.75;5.10;;;19.80;58.40;;;;;;5087275;28;45344;-73
2022/10/11 02:24:05;;;;;;;8.00;4.60;;;19.80;59.00;;;;;;5087568;28;45348;-74
2022/10/11 02:26:32;;;;;;;6.82;4.78;;;19.80;58.50;;;;;;5087105;28;45411;-73
2022/10/11 02:29:00;;;;;;;9.70;5.05;;;19.80;58.50;;;;;;5087104;28;46367;-73
2022/10/11 02:31:27;;;;;;;10.02;4.90;;;19.80;58.50;;;;;;5087225;28;45204;-74
2022/10/11 02:33:56;;;;;;;9.10;5.43;;;19.80;58.50;;;;;;5087448;28;45147;-73
2022/10/11 02:36:24;;;;;;;7.60;4.72;;;19.80;58.50;;;;;;5087608;28;45221;-73
2022/10/11 02:38:54;;;;;;;9.77;4.72;;;19.80;58.60;;;;;;5087069;28;45364;-74
2022/10/11 02:41:23;;;;;;;9.15;4.57;;;19.80;58.50;;;;;;5087113;28;45187;-73
2022/10/11 02:43:53;;;;;;;8.02;4.60;;;19.80;58.60;;;;;;5087077;28;45288;-73
2022/10/11 02:46:20;;;;;;;7.28;4.65;;;19.80;58.60;;;;;;5087424;28;45232;-73
2022/10/11 02:48:47;;;;;;;9.13;4.47;;;19.80;58.60;;;;;;5086955;28;45619;-74
2022/10/11 02:51:14;;;;;;;7.97;4.78;;;19.80;58.60;;;;;;5086982;28;45368;-73
2022/10/11 02:53:41;;;;;;;5.78;3.88;;;19.80;58.60;;;;;;5087182;28;45344;-74
2022/10/11 02:56:09;;;;;;;8.13;4.70;;;19.80;58.60;;;;;;5086485;28;45470;-73
2022/10/11 02:58:36;;;;;;;7.78;4.75;;;19.70;58.60;;;;;;5086822;28;45209;-73
2022/10/11 03:01:03;;;;;;;7.03;4.45;;;19.70;58.50;;;;;;5086795;28;45276;-73
2022/10/11 03:03:30;;;;;;;7.68;4.30;;;19.70;58.50;;;;;;5066733;28;45290;-73
2022/10/11 03:06:00;;;;;;;7.55;4.50;;;19.70;58.50;;;;;;5066839;28;45388;-73
2022/10/11 03:08:29;;;;;;;8.40;4.50;;;19.70;58.60;;;;;;5066303;28;45257;-73
2022/10/11 03:10:55;;;;;;;7.85;4.45;;;19.70;58.60;;;;;;5066397;28;45225;-73
2022/10/11 03:13:24;;;;;;;7.70;4.50;;;19.70;58.60;;;;;;5066483;28;45357;-73
2022/10/11 03:15:51;;;;;;;6.88;4.65;;;19.70;58.60;;;;;;5066590;28;45191;-73
2022/10/11 03:18:18;;;;;;;6.60;4.22;;;19.70;58.60;;;;;;5066172;28;45329;-74
2022/10/11 03:20:45;;;;;;;5.72;4.15;;;19.70;58.60;;;;;;5066314;28;45304;-73
2022/10/11 03:23:12;;;;;;;7.18;4.43;;;19.70;58.60;;;;;;5066323;28;45286;-73
2022/10/11 03:25:39;;;;;;;5.65;3.70;;;19.70;58.60;;;;;;5066589;28;45396;-73
2022/10/11 03:28:05;;;;;;;7.97;4.10;;;19.70;58.60;;;;;;5066029;28;46399;-73
2022/10/11 03:30:34;;;;;;;6.57;3.92;;;19.70;58.60;;;;;;5066154;28;45178;-74
2022/10/11 03:33:00;;;;;;;6.78;3.85;;;19.70;58.60;;;;;;5066307;28;45292;-73
2022/10/11 03:35:27;;;;;;;7.35;4.57;;;19.70;58.60;;;;;;5066428;28;45415;-73
2022/10/11 03:37:54;;;;;;;5.35;3.90;;;19.60;58.60;;;;;;5066840;28;45465;-73
2022/10/11 03:40:21;;;;;;;6.85;4.18;;;19.60;58.60;;;;;;5068896;28;45213;-73
2022/10/11 03:42:48;;;;;;;6.72;3.67;;;19.60;58.50;;;;;;5068794;28;45450;-73
2022/10/11 03:45:15;;;;;;;6.72;4.38;;;19.60;58.60;;;;;;5069802;28;45357;-74
2022/10/11 03:47:43;;;;;;;6.80;4.53;;;19.60;58.60;;;;;;5069277;28;46408;-73
2022/10/11 03:50:10;;;;;;;6.35;3.85;;;19.60;58.60;;;;;;5069426;28;45235;-73
2022/10/11 03:52:37;;;;;;;5.57;3.80;;;19.60;58.50;;;;;;5069593;28;45291;-73
2022/10/11 03:55:05;;;;;;;5.82;3.55;;;19.60;58.50;;;;;;5069722;28;45292;-73
2022/10/11 03:57:32;;;;;;;7.22;4.28;;;19.60;58.50;;;;;;5069351;28;47290;-73
2022/10/11 03:59:58;;;;;;;5.40;3.67;;;19.60;58.50;;;;;;5069286;28;45166;-73
2022/10/11 04:02:25;;;;;;;7.30;3.90;;;19.60;58.50;;;;;;5080922;28;45261;-73
2022/10/11 04:04:54;;;;;;;5.35;3.78;;;19.60;58.40;;;;;;5089541;28;45173;-73
2022/10/11 04:07:20;;;;;;;5.28;3.88;;;19.60;58.50;;;;;;5089426;28;46441;-74
2022/10/11 04:09:47;;;;;;;8.95;4.10;;;19.60;58.50;;;;;;5089442;28;45316;-73
2022/10/11 04:12:14;;;;;;;7.22;3.55;;;19.60;58.40;;;;;;5089484;28;45221;-73
2022/10/11 04:14:41;;;;;;;6.25;3.72;;;19.50;58.40;;;;;;5089720;28;45391;-73
2022/10/11 04:17:08;;;;;;;5.93;3.83;;;19.50;58.50;;;;;;5089221;28;45233;-73
2022/10/11 04:19:36;;;;;;;5.30;3.55;;;19.50;58.50;;;;;;5089480;28;45344;-73
2022/10/11 04:22:04;;;;;;;6.55;3.95;;;19.50;58.50;;;;;;5089471;28;45299;-73
2022/10/11 04:24:31;;;;;;;4.13;3.28;;;19.50;58.40;;;;;;5089415;28;45254;-72
2022/10/11 04:26:58;;;;;;;5.43;3.42;;;19.50;58.40;;;;;;5088482;28;45178;-73
2022/10/11 04:29:25;;;;;;;7.03;3.80;;;19.50;58.40;;;;;;5089169;28;45300;-73
2022/10/11 04:31:51;;;;;;;6.03;3.40;;;19.50;58.50;;;;;;5089175;28;45365;-74
2022/10/11 04:34:18;;;;;;;6.10;3.30;;;19.50;58.50;;;;;;5089439;28;45373;-74
2022/10/11 04:36:45;;;;;;;4.70;3.38;;;19.40;58.40;;;;;;5088826;28;46640;-74
2022/10/11 04:39:13;;;;;;;5.18;3.63;;;19.40;58.40;;;;;;5089039;28;45196;-73
2022/10/11 04:41:40;;;;;;;6.75;3.30;;;19.40;58.50;;;;;;5088872;28;45318;-73
2022/10/11 04:44:07;;;;;;;5.47;3.88;;;19.40;58.50;;;;;;5089275;28;45359;-73
2022/10/11 04:46:34;;;;;;;5.13;3.30;;;19.40;58.50;;;;;;5088858;28;45237;-73
2022/10/11 04:49:01;;;;;;;5.20;3.55;;;19.40;58.40;;;;;;5088261;27;45360;-73
2022/10/11 04:51:28;;;;;;;6.32;3.20;;;19.40;58.40;;;;;;5088925;28;45249;-73
2022/10/11 04:53:54;;;;;;;4.65;3.17;;;19.40;58.40;;;;;;5089042;28;45300;-73
2022/10/11 04:56:23;;;;;;;4.13;2.80;;;19.30;58.40;;;;;;5088605;28;45391;-73
2022/10/11 04:58:52;;;;;;;4.28;3.15;;;19.30;58.50;;;;;;5088804;28;45237;-73
2022/10/11 05:01:19;;;;;;;6.20;3.25;;;19.30;58.40;;;;;;5088724;28;45439;-74
2022/10/11 05:03:46;;;;;;;5.05;3.35;;;19.30;58.50;;;;;;5088793;28;45408;-73
2022/10/11 05:06:13;;;;;;;4.35;3.20;;;19.30;58.40;;;;;;5088455;28;46374;-73
2022/10/11 05:08:40;;;;;;;4.90;3.53;;;19.30;59.10;;;;;;5088555;28;45251;-73
2022/10/11 05:11:09;;;;;;;7.28;3.30;;;19.30;58.50;;;;;;5087970;28;45236;-74
2022/10/11 05:13:38;;;;;;;5.32;3.33;;;19.30;58.40;;;;;;5088813;28;45479;-73
2022/10/11 05:16:05;;;;;;;5.13;3.10;;;19.20;58.40;;;;;;5088429;28;45351;-73
2022/10/11 05:18:32;;;;;;;5.47;3.45;;;19.20;58.40;;;;;;5088379;28;45248;-73
2022/10/11 05:21:00;;;;;;;4.47;2.80;;;19.20;58.50;;;;;;5088430;28;45309;-73
2022/10/11 05:23:27;;;;;;;5.15;3.05;;;19.20;58.40;;;;;;5088475;28;45299;-73
2022/10/11 05:25:54;;;;;;;4.28;2.78;;;19.20;58.40;;;;;;5088163;28;45356;-74
2022/10/11 05:28:21;;;;;;;4.03;2.97;;;19.20;58.40;;;;;;5088414;28;45305;-73
2022/10/11 05:30:49;;;;;;;5.55;3.28;;;19.20;58.40;;;;;;5088416;28;45266;-73
2022/10/11 05:33:16;;;;;;;4.72;2.85;;;19.20;58.40;;;;;;5088495;28;45210;-73
2022/10/11 05:35:43;;;;;;;4.38;2.90;;;19.20;58.40;;;;;;5087929;28;45459;-73
2022/10/11 05:38:10;;;;;;;3.97;2.90;;;19.10;58.40;;;;;;5088009;28;45192;-73
2022/10/11 05:40:37;;;;;;;6.05;3.30;;;19.10;58.40;;;;;;5088124;28;45231;-73
2022/10/11 05:43:04;;;;;;;4.82;3.17;;;19.10;58.40;;;;;;5087890;28;45256;-73
2022/10/11 05:45:31;;;;;;;4.13;3.00;;;19.10;58.40;;;;;;5087938;28;45424;-74
2022/10/11 05:48:00;;;;;;;4.60;2.90;;;19.10;58.40;;;;;;5087967;28;45292;-73
2022/10/11 05:50:26;;;;;;;5.75;2.92;;;19.10;58.40;;;;;;5088222;28;45264;-72
2022/10/11 05:52:53;;;;;;;4.43;2.60;;;19.10;58.40;;;;;;5088368;28;45250;-72
2022/10/11 05:55:20;;;;;;;3.88;3.00;;;19.10;58.40;;;;;;5087067;28;45479;-72
2022/10/11 05:57:51;;;;;;;3.90;2.80;;;19.10;58.40;;;;;;5087411;28;45344;-72
2022/10/11 06:00:20;;;;;;;5.25;3.35;;;19.10;58.40;;;;;;5086839;27;45155;-73
2022/10/11 06:02:46;;;;;;;3.47;2.60;;;19.00;58.30;;;;;;5087749;28;45238;-73
2022/10/11 06:05:15;;;;;;;5.80;2.70;;;19.00;58.40;;;;;;5087588;28;45485;-73
2022/10/11 06:07:42;;;;;;;4.13;2.85;;;19.00;58.50;;;;;;5087626;28;45205;-73
2022/10/11 06:10:09;;;;;;;4.40;2.72;;;19.00;58.50;;;;;;5087907;28;45177;-73
2022/10/11 06:12:36;;;;;;;6.38;3.03;;;18.90;58.50;;;;;;5087799;28;45412;-73
2022/10/11 06:15:03;;;;;;;3.65;2.63;;;18.90;58.60;;;;;;5087344;28;45487;-72
2022/10/11 06:17:30;;;;;;;3.80;2.70;;;18.90;58.60;;;;;;5087497;28;45345;-73
2022/10/11 06:19:57;;;;;;;4.43;3.10;;;18.90;58.50;;;;;;5087477;28;45198;-72
2022/10/11 06:22:25;;;;;;;4.07;2.67;;;18.90;58.60;;;;;;5087676;28;45272;-73
2022/10/11 06:24:52;;;;;;;4.68;3.22;;;18.90;58.60;;;;;;5087246;28;47206;-72
2022/10/11 06:27:19;;;;;;;4.32;2.53;;;18.90;58.60;;;;;;5087312;28;45354;-73
2022/10/11 06:29:46;;;;;;;4.13;2.83;;;18.90;58.70;;;;;;5084837;28;45227;-72
2022/10/11 06:32:13;;;;;;;4.50;2.95;;;18.90;58.60;;;;;;5087705;28;45174;-73
2022/10/11 06:34:39;;;;;;;3.47;2.70;;;18.90;58.70;;;;;;5087054;28;47995;-73
2022/10/11 06:37:06;;;;;;;3.75;3.10;;;18.90;58.60;;;;;;5087122;28;45292;-72
2022/10/11 06:39:35;;;;;;;5.28;3.13;;;18.90;58.60;;;;;;5087208;28;45295;-73
2022/10/11 06:42:02;;;;;;;4.63;3.28;;;18.90;58.70;;;;;;5086438;28;45409;-72
2022/10/11 06:44:29;;;;;;;5.05;2.85;;;18.90;58.60;;;;;;5084846;28;47339;-72
2022/10/11 06:46:56;;;;;;;3.05;2.75;;;18.90;58.70;;;;;;5105744;27;45392;-73
2022/10/11 06:49:23;;;;;;;5.97;3.60;;;18.90;58.70;;;;;;5102360;27;45379;-72
2022/10/11 06:51:49;;;;;;;5.05;3.10;;;18.90;58.80;;;;;;5084654;28;45593;-73
2022/10/11 06:54:16;;;;;;;5.95;3.47;;;18.90;58.90;;;;;;5084902;28;46817;-72
2022/10/11 06:56:45;;;;;;;8.98;3.58;;;18.90;58.90;;;;;;5085234;28;45304;-72
2022/10/11 06:59:12;;;;;;;4.85;2.83;;;18.90;59.00;;;;;;5082773;28;45260;-73
2022/10/11 07:01:39;;;;;;;4.60;3.08;;;18.90;59.00;;;;;;5076809;28;45465;-72
2022/10/11 07:04:07;;;;;;;5.20;3.05;;;18.90;59.00;;;;;;5082171;28;46931;-73
2022/10/11 07:06:36;;;;;;;5.15;3.10;;;18.90;59.00;;;;;;5085766;28;45215;-73
2022/10/11 07:09:02;;;;;;;5.25;3.50;;;18.90;59.00;;;;;;5084888;28;45379;-73
2022/10/11 07:11:30;;;;;;;6.38;2.90;;;18.90;59.10;;;;;;5067706;28;45293;-73
2022/10/11 07:13:59;;;;;;;4.05;2.85;;;18.90;59.00;;;;;;5070079;28;47454;-72
2022/10/11 07:16:26;;;;;;;4.70;2.90;;;18.90;59.10;;;;;;5069601;28;45305;-72
2022/10/11 07:18:54;;;;;;;4.60;2.90;;;18.90;59.00;;;;;;5079883;28;45387;-72
2022/10/11 07:21:20;;;;;;;4.45;2.88;;;18.90;59.00;;;;;;5090557;28;45250;-72
2022/10/11 07:23:47;;;;;;;6.32;3.13;;;18.90;59.00;;;;;;5090210;28;46356;-73
2022/10/11 07:26:14;;;;;;;4.43;2.95;;;18.90;59.00;;;;;;5089995;28;45197;-72
2022/10/11 07:28:41;;;;;;;5.70;2.90;;;18.90;59.00;;;;;;5089492;28;45291;-72
2022/10/11 07:31:10;;;;;;;4.13;3.00;;;18.90;59.00;;;;;;5090191;28;45437;-71
2022/10/11 07:33:37;;;;;;;5.07;3.03;;;18.90;59.50;;;;;;5090054;28;46392;-72
2022/10/11 07:36:05;;;;;;;7.68;3.13;;;18.90;58.90;;;;;;5081011;28;45301;-73
2022/10/11 07:38:34;;;;;;;4.38;3.10;;;18.90;59.00;;;;;;5090160;28;45306;-73
2022/10/11 07:41:05;;;;;;;3.72;2.83;;;18.90;59.00;;;;;;5084581;28;45292;-73
2022/10/11 07:43:31;;;;;;;5.97;3.25;;;18.90;59.00;;;;;;5069328;28;45468;-73
2022/10/11 07:46:02;;;;;;;3.13;2.83;;;18.90;58.90;;;;;;5076837;28;45304;-73
2022/10/11 07:48:31;;;;;;;5.47;3.22;;;19.00;58.90;;;;;;5089938;28;45431;-73
2022/10/11 07:51:03;;;;;;;4.55;2.97;;;19.00;59.00;;;;;;5090136;28;45397;-74
2022/10/11 07:53:30;;;;;;;4.57;3.10;;;19.00;58.90;;;;;;5089790;28;45747;-73
2022/10/11 07:56:00;;;;;;;4.50;2.65;;;19.00;58.90;;;;;;5089870;28;45371;-73
2022/10/11 07:58:27;;;;;;;3.97;3.08;;;19.00;58.90;;;;;;5089877;28;45124;-74
2022/10/11 08:00:54;;;;;;;7.82;2.72;;;19.00;58.80;;;;;;5089510;28;45486;-73
2022/10/11 08:03:21;;;;;;;3.67;3.20;;;19.00;58.80;;;;;;5069785;28;47281;-74
2022/10/11 08:05:52;;;;;;;4.55;3.13;;;19.00;58.90;;;;;;5086184;28;45376;-74
2022/10/11 08:08:18;;;;;;;6.28;3.10;;;19.00;58.90;;;;;;5087589;28;45426;-73
2022/10/11 08:10:45;;;;;;;5.82;3.00;;;19.00;58.90;;;;;;5090160;28;45249;-73
2022/10/11 08:13:13;;;;;;;3.90;3.22;;;19.00;58.90;;;;;;5088489;28;46748;-73
2022/10/11 08:15:40;;;;;;;3.85;2.78;;;19.00;58.90;;;;;;5087024;28;45462;-73
2022/10/11 08:18:07;;;;;;;5.05;2.85;;;19.10;59.00;;;;;;5086998;28;45350;-73
2022/10/11 08:20:33;;;;;;;6.63;3.67;;;19.10;59.00;;;;;;5088905;28;45483;-73
2022/10/11 08:23:02;;;;;;;5.15;3.42;;;19.10;59.00;;;;;;5088121;27;46389;-73
2022/10/11 08:25:28;;;;;;;4.07;3.10;;;19.10;59.00;;;;;;5088235;28;45348;-74
2022/10/11 08:27:55;;;;;;;5.45;3.10;;;19.10;59.10;;;;;;5089020;28;45300;-73
2022/10/11 08:30:22;;;;;;;4.28;3.10;;;19.10;59.10;;;;;;5082841;28;45343;-74
2022/10/11 08:32:49;;;;;;;4.85;3.20;;;19.10;59.00;;;;;;5085238;28;47564;-73
2022/10/11 08:35:16;;;;;;;4.30;3.15;;;19.10;59.00;;;;;;5068801;28;45262;-73
2022/10/11 08:37:43;;;;;;;4.85;3.72;;;19.10;59.10;;;;;;5079299;28;45249;-73
2022/10/11 08:40:13;;;;;;;5.00;3.53;;;19.10;59.30;;;;;;5088911;28;45414;-73
2022/10/11 08:42:43;;;;;;;5.57;3.30;;;19.10;59.30;;;;;;5088757;28;47577;-73
2022/10/11 08:45:10;;;;;;;5.13;3.35;;;19.10;59.20;;;;;;5086905;28;45392;-74
2022/10/11 08:47:38;;;;;;;5.18;3.15;;;19.10;59.20;;;;;;5087863;28;45289;-73
2022/10/11 08:50:06;;;;;;;5.78;3.38;;;19.10;59.20;;;;;;5088658;28;45458;-73
2022/10/11 08:52:40;;;;;;;6.65;3.50;;;19.10;59.20;;;;;;5088848;28;45440;-73
2022/10/11 08:55:12;;;;;;;5.22;3.47;;;19.10;59.20;;;;;;5087535;28;45491;-73
2022/10/11 08:57:39;;;;;;;5.50;3.47;;;19.10;59.10;;;;;;5088865;28;45368;-73
2022/10/11 09:00:07;;;;;;;6.70;3.70;;;19.10;59.70;;;;;;5085942;28;45459;-73
2022/10/11 09:02:40;;;;;;;6.38;3.78;;;19.10;59.10;;;;;;5088568;28;45271;-73
2022/10/11 09:05:07;;;;;;;5.15;3.40;;;19.10;59.10;;;;;;5080565;28;45585;-72
2022/10/11 09:07:40;;;;;;;4.45;3.40;;;19.10;59.10;;;;;;5069039;28;45292;-73
2022/10/11 09:10:17;;;;;;;8.10;3.83;;;19.10;59.20;;;;;;5086286;28;45550;-74
2022/10/11 09:12:48;;;;;;;5.85;3.60;;;19.10;59.20;;;;;;5088317;28;45356;-73
2022/10/11 09:15:30;;;;;;;5.97;3.85;;;19.10;59.20;;;;;;5098524;27;45299;-72
2022/10/11 09:18:25;;;;;;;4.40;3.33;;;19.10;59.20;;;;;;5091890;27;45406;-73
2022/10/11 09:20:56;;;;;;;5.43;4.05;;;19.10;59.20;;;;;;5076300;28;45652;-73
2022/10/11 09:23:35;;;;;;;5.38;3.45;;;19.10;59.20;;;;;;5082638;28;46361;-73
2022/10/11 09:26:05;;;;;;;3.83;3.17;;;19.10;59.10;;;;;;5087686;28;45461;-73
2022/10/11 09:28:39;;;;;;;5.90;3.33;;;19.10;59.10;;;;;;5087429;28;45226;-73
2022/10/11 09:31:08;;;;;;;5.50;3.63;;;19.10;59.70;;;;;;5087758;28;45307;-73
2022/10/11 09:33:39;;;;;;;4.07;3.60;;;19.10;59.10;;;;;;5084925;28;45302;-73
2022/10/11 09:36:15;;;;;;;6.60;3.67;;;19.10;59.20;;;;;;5080220;27;45502;-72
2022/10/11 09:38:45;;;;;;;5.97;3.45;;;19.10;59.10;;;;;;5073903;28;45213;-74
2022/10/11 09:41:16;;;;;;;5.20;3.88;;;19.10;59.10;;;;;;5085257;28;45439;-73
2022/10/11 09:43:47;;;;;;;5.75;3.20;;;19.10;59.10;;;;;;5085874;28;46405;-73
2022/10/11 09:46:21;;;;;;;4.55;3.35;;;19.10;59.10;;;;;;5087104;28;45226;-73
2022/10/11 09:48:48;;;;;;;5.72;3.60;;;19.20;59.20;;;;;;5087606;28;45364;-74
2022/10/11 09:51:18;;;;;;;5.47;3.80;;;19.20;59.20;;;;;;5084102;28;45353;-73
2022/10/11 09:53:53;;;;;;;4.65;3.17;;;19.20;59.20;;;;;;5087970;28;45604;-73
2022/10/11 09:56:21;;;;;;;4.93;3.55;;;19.20;59.10;;;;;;5086663;28;45360;-73
2022/10/11 09:58:48;;;;;;;4.85;3.65;;;19.20;59.10;;;;;;5070708;28;45244;-73
2022/10/11 10:01:22;;;;;;;6.10;3.88;;;19.20;59.10;;;;;;5085289;28;45402;-73
2022/10/11 10:03:49;;;;;;;4.95;3.30;;;19.20;59.10;;;;;;5082826;28;46382;-73
2022/10/11 10:06:17;;;;;;;4.55;3.65;;;19.20;59.10;;;;;;5084200;28;45249;-73
2022/10/11 10:08:46;;;;;;;4.60;3.15;;;19.20;59.20;;;;;;5085757;28;45304;-73
2022/10/11 10:11:13;;;;;;;6.65;3.53;;;19.20;59.20;;;;;;5086945;28;45670;-73
2022/10/11 10:13:43;;;;;;;6.70;3.58;;;19.20;59.20;;;;;;5087273;28;46320;-73
2022/10/11 10:16:22;;;;;;;4.70;3.50;;;19.20;59.20;;;;;;5087703;28;45316;-74
2022/10/11 10:18:51;;;;;;;4.50;3.60;;;19.20;59.20;;;;;;5087739;28;45193;-73
2022/10/11 10:21:23;;;;;;;3.90;3.50;;;19.20;59.20;;;;;;5086879;28;45418;-73
2022/10/11 10:23:53;;;;;;;5.10;3.60;;;19.20;59.20;;;;;;5086631;28;45664;-73
2022/10/11 10:26:21;;;;;;;4.75;3.60;;;19.20;59.50;;;;;;5084452;28;45506;-73
2022/10/11 10:28:57;;;;;;;6.13;3.92;;;19.20;59.30;;;;;;5086171;28;45426;-73
2022/10/11 10:31:26;;;;;;;6.25;3.58;;;19.20;59.20;;;;;;5087646;28;45231;-73
2022/10/11 10:33:53;;;;;;;7.13;3.40;;;19.20;59.30;;;;;;5085223;28;46377;-74
2022/10/11 10:36:22;;;;;;;4.90;3.55;;;19.20;59.30;;;;;;5077950;28;45234;-72
2022/10/11 10:38:50;;;;;;;5.25;3.47;;;19.20;59.30;;;;;;5067077;28;45220;-74
2022/10/11 10:41:17;;;;;;;4.00;3.60;;;19.20;59.30;;;;;;5067355;28;45178;-73
2022/10/11 10:43:51;;;;;;;4.90;3.58;;;19.20;59.30;;;;;;5066235;28;46388;-73
2022/10/11 10:46:33;;;;;;;5.57;3.42;;;19.20;59.30;;;;;;5085854;28;45344;-73
2022/10/11 10:49:02;;;;;;;5.05;4.00;;;19.20;59.30;;;;;;5087315;28;45242;-73
2022/10/11 10:51:36;;;;;;;4.70;3.50;;;19.20;59.30;;;;;;5087412;28;45293;-72
2022/10/11 10:54:05;;;;;;;5.30;4.13;;;19.20;59.30;;;;;;5086876;28;46658;-73
2022/10/11 10:56:33;;;;;;;4.07;3.60;;;19.20;59.30;;;;;;5083356;28;45490;-73
2022/10/11 10:59:11;;;;;;;4.93;3.97;;;19.20;59.30;;;;;;5084217;28;45186;-73
2022/10/11 11:01:44;;;;;;;6.72;3.78;;;19.20;59.30;;;;;;5080070;28;45336;-72
2022/10/11 11:04:26;;;;;;;5.32;3.72;;;19.20;59.30;;;;;;5093296;27;45664;-73
2022/10/11 11:06:54;;;;;;;5.60;3.88;;;19.20;59.30;;;;;;5087250;27;45452;-73
2022/10/11 11:09:30;;;;;;;4.22;3.80;;;19.20;59.30;;;;;;5086567;28;45210;-74
2022/10/11 11:12:03;;;;;;;4.65;3.28;;;19.20;59.30;;;;;;5085784;28;45376;-73
2022/10/11 11:14:38;;;;;;;6.63;3.67;;;19.20;59.40;;;;;;5084586;28;45502;-72
2022/10/11 11:17:14;;;;;;;5.10;4.07;;;19.30;59.40;;;;;;5086517;28;45182;-73
2022/10/11 11:19:47;;;;;;;6.57;4.15;;;19.30;59.50;;;;;;5084209;28;45237;-73
2022/10/11 11:22:16;;;;;;;6.03;4.10;;;19.30;59.40;;;;;;5084967;28;45355;-74
2022/10/11 11:24:46;;;;;;;6.90;4.18;;;19.30;59.40;;;;;;5083813;27;45497;-73
2022/10/11 11:27:30;;;;;;;4.78;3.65;;;19.30;59.40;;;;;;5084572;27;45427;-73
2022/10/11 11:30:01;;;;;;;7.85;3.95;;;19.30;59.40;;;;;;5086550;28;45318;-73
2022/10/11 11:32:33;;;;;;;5.47;3.78;;;19.30;59.30;;;;;;5084555;27;45547;-73
2022/10/11 11:35:01;;;;;;;5.18;3.30;;;19.30;59.20;;;;;;5084887;27;45384;-73
2022/10/11 11:37:30;;;;;;;8.05;3.53;;;19.30;59.20;;;;;;5084599;27;46810;-73
2022/10/11 11:39:59;;;;;;;4.93;3.50;;;19.30;59.20;;;;;;5084567;28;45695;-73
2022/10/11 11:42:29;;;;;;;5.50;3.67;;;19.30;59.20;;;;;;5084685;27;45236;-73
2022/10/11 11:44:56;;;;;;;7.75;3.90;;;19.30;59.10;;;;;;5084188;27;46416;-74
2022/10/11 11:47:25;;;;;;;4.22;3.20;;;19.40;59.20;;;;;;5085449;27;45430;-72
2022/10/11 11:49:56;;;;;;;4.90;3.70;;;19.40;59.30;;;;;;5085226;27;45352;-73
2022/10/11 11:52:26;;;;;;;5.72;3.67;;;19.40;59.40;;;;;;5085362;27;45320;-72
2022/10/11 11:54:55;;;;;;;5.22;3.67;;;19.40;59.40;;;;;;5084320;27;45357;-72
2022/10/11 11:57:26;;;;;;;3.90;3.35;;;19.40;59.30;;;;;;5085588;28;45456;-74
2022/10/11 11:59:56;;;;;;;4.50;3.58;;;19.40;59.40;;;;;;5088444;28;45142;-74
2022/10/11 12:02:40;;;;;;;9.82;3.85;;;19.40;59.90;;;;;;5079201;28;45412;-74
2022/10/11 12:05:09;;;;;;;4.07;3.55;;;19.40;59.30;;;;;;5073188;28;46475;-73
2022/10/11 12:07:54;;;;;;;6.93;3.78;;;19.40;59.30;;;;;;5089388;28;45256;-73
2022/10/11 12:10:27;;;;;;;6.65;3.78;;;19.40;59.30;;;;;;5077634;28;45241;-73
2022/10/11 12:13:02;;;;;;;5.55;3.65;;;19.40;59.30;;;;;;5069684;28;45530;-74
2022/10/11 12:15:29;;;;;;;5.07;3.42;;;19.40;59.30;;;;;;5073230;28;46621;-73
2022/10/11 12:18:04;;;;;;;3.70;3.40;;;19.50;59.30;;;;;;5088656;28;45278;-73
2022/10/11 12:20:35;;;;;;;4.82;3.60;;;19.50;59.30;;;;;;5082964;28;45171;-73
2022/10/11 12:23:03;;;;;;;5.15;3.38;;;19.50;59.30;;;;;;5069337;28;45479;-73
2022/10/11 12:25:42;;;;;;;3.92;3.45;;;19.50;59.30;;;;;;5070323;28;46658;-73
2022/10/11 12:29:01;;;;;;;4.30;3.47;;;19.50;59.90;;;;;;5089839;28;45345;-73
2022/10/11 12:31:29;;;;;;;5.25;3.38;;;19.50;59.30;;;;;;5087965;28;45241;-73
2022/10/11 12:34:35;;;;;;;5.72;3.30;;;19.50;59.20;;;;;;5088573;28;45487;-74
2022/10/11 12:37:35;;;;;;;5.38;3.20;;;19.50;59.20;;;;;;5068384;28;45729;-73
2022/10/11 12:40:19;;;;;;;3.72;3.33;;;19.50;59.20;;;;;;5068602;28;45319;-73
2022/10/11 12:43:09;;;;;;;3.55;3.20;;;19.50;59.20;;;;;;5068602;28;45422;-74
2022/10/11 12:45:36;;;;;;;4.40;3.60;;;19.50;59.20;;;;;;5068531;28;45175;-73
2022/10/11 12:48:10;;;;;;;7.38;3.50;;;19.50;59.20;;;;;;5067796;28;45546;-74
2022/10/11 12:50:42;;;;;;;6.20;3.22;;;19.50;59.20;;;;;;5068064;28;45189;-73
2022/10/11 12:53:11;;;;;;;4.00;3.20;;;19.50;59.10;;;;;;5068692;28;45306;-73
2022/10/11 12:55:44;;;;;;;2.92;2.72;;;19.50;59.10;;;;;;5085068;28;45358;-74
2022/10/11 12:58:24;;;;;;;4.85;2.92;;;19.50;59.10;;;;;;5088607;28;45280;-73